Huvudsida
METAR-TAF:

METAR-TAF

Flygplatser :

Cayenne-Rochambeau

Cayenne, Franska Guyana

latitud: 04-50N, longitud: 052-22W, höjd: 105 m

Aktuellt väderrapport

Denna rapport gjordes för 26 minuter sedan, klockan 21:00 UTC
Vind 7 kt från ost
Temperatur 29°C
Fuktighet 74%
Tryck 1014 hPa
Sikt 10 km eller mer

METAR: SOCA 162100Z AUTO 09007KT 9999 ///CB 29/24 Q1014 BECMG SCT028 BKN110

Tid: 18:26 (21:26 UTC)

Väderprognos

Denna rapport gjordes för 5 timmar och 26 minuter sedan, klockan 16:00 UTC
Prognos gäller från 16 kl. 18 UTC till 17 kl. 18 UTC
Vind 10 kt från ost
Sikt 10 km eller mer
Spridda moln på en höjd av 2800 ft
Brutna moln på en höjd av 11000 ft
Från 16 kl. 2300 UTC
Vind 2 kt varierande vindriktning
Sikt 10 km eller mer
Få moln på en höjd av 2000 ft
Från 17 kl. 1400 UTC
Vind 10 kt från ost/nordost
Sikt 10 km eller mer
Spridda moln på en höjd av 3300 ft

TAF: SOCA 161600Z 1618/1718 09010KT 9999 SCT028 BKN110 FM162300 VRB02KT 9999 FEW020 FM171400 07010KT 9999 SCT033

Aktuella väderrapporter och prognoser från 4000 flygplatser (METAR- och TAF-rapporter).

De tillgängliga stationerna syns som gula och röda prickar på kartan.

För musen över prickarna för att se namnen på stationerna.

Klicka sedan för att få väderrapporter och prognoser.

För att ändra kartan: Klicka på de gröna knapparna med ett svart kors på för att zooma in; den gröna knappen med ett streck på för att zooma ut; eller på de gröna pilarna för angränsande kartor.


METAR-TAF: